Ackley, IA

1:59 PM CDT on May 04, 2015 (GMT -0500)
IADOT | | Change Station
CLOSE
Current Station
Personal Weather Station
Location: Steamboat Rock, IA
Elevation: 1049 ft
Nearby Weather Stations

Elev 1049 ft 42.45 °N, 93.06 °W | Updated 34 minutes ago

Partly Cloudy
Partly Cloudy
67 °F
Feels Like 67 °F
N
16
Wind Variable Wind from NE
Gusts 23.0 mph

Today
High -- | Low -- °F
--% Chance of Precip.
Yesterday
High -- | Low -- °F
Precip. -- in
6:03 AM 8:15 PM
Full, 100% visible
Pressure 30.13 in
Visibility 10.0 miles
Clouds Scattered Clouds 11000 ft
Dew Point 52 °F
Humidity 58%
Rainfall in
Snow Depth Not available.
UV 8 out of 12
Pollen 3.40 out of 12
Air Quality Not available.
Flu Activity Local Activity
METAR KIFA 041835Z AUTO 05014G19KT 10SM SCT110 20/10 A3013 RMK AO2 T01950095

More Conditions Fewer Conditions

Pressure 30.13 in
Visibility 10.0 miles
Clouds Scattered Clouds 11000 ft
Dew Point 52 °F
Humidity 58%
Rainfall in
Snow Depth Not available.
UV 8 out of 12
Pollen 3.40 out of 12
Air Quality Not available.
Flu Activity Local Activity
METAR KIFA 041835Z AUTO 05014G19KT 10SM SCT110 20/10 A3013 RMK AO2 T01950095

More Conditions Fewer Conditions

Nepal has a long way to go to dig out and rebuild from a devastating earthquake. We have teamed up with several charities and organizations to make contributing to the relief effort as easy as possible.
How you can help: Portlight Strategies | Red Cross

10-Day Weather Forecast

Almanac

Astronomy

May. 04, 2015 Rise Set
Actual Time
Civil Twilight
Nautical Twilight
Astronomical Twilight
Moon
Length of Visible Light
Length of Day
Tomorrow will be .
, % of the Moon is Illuminated

Today's Extremes

State Highs State Lows

Community

WunderPhotos

Upload Photos

1,818,665 photos uploaded!

WunderBlogs® & News

Nearby

Air Quality

  Air Quality AQ Index Pollutant
Not available.

Snow Depth

Station Depth Elevation

Earthquake Activity

City Distance Mag. Time & Date
Minimum magnitude displayed is 2.5.

Coastal Water Temperatures

Place Temperature

Stations

Nearby Weather Stations

Station Location Temp. Windchill Dew Point Humidity Wind Precip. Elev Updated Type